Data for 06/28/2008

Time Sea-Level Adjusted Pressure Absolute Pressure Temperature Relative Humidity Dew Point   
(mb) (inHg) (mb) (inHg) (C) (F) (%) (C) (F)
00:05 1024 30.24 853 25.19 15.3 59.6 43 3.1 37.5
00:10 1024 30.24 853 25.19 15.3 59.6 43 2.8 37
00:15 1024 30.24 853 25.19 15.4 59.8 42 2.7 36.9
00:20 1024 30.24 853 25.19 15.5 59.9 41 2.5 36.5
00:25 1024 30.24 854 25.22 15.5 59.8 41 2.5 36.6
00:30 1024 30.24 854 25.22 15.5 59.8 41 2.5 36.5
00:35 1024 30.24 854 25.22 15.4 59.7 42 2.6 36.7
00:40 1024 30.24 854 25.22 15.2 59.4 42 2.6 36.7
00:45 1025 30.27 854 25.22 15 59 42 2.3 36.2
00:50 1025 30.27 854 25.22 15 58.9 42 2.3 36.2
00:55 1025 30.27 854 25.22 14.9 58.7 42 2.2 36
01:00 1025 30.27 854 25.22 14.8 58.6 42 2 35.7
01:05 1025 30.27 854 25.22 14.8 58.6 42 2 35.5
01:10 1025 30.27 854 25.22 14.7 58.4 41 1.6 35
01:15 1025 30.27 854 25.22 14.7 58.5 41 1.8 35.2
01:20 1025 30.27 854 25.22 14.6 58.3 40 1.4 34.5
01:25 1025 30.27 854 25.22 14.6 58.2 41 1.5 34.7
01:30 1025 30.27 854 25.22 14.5 58.1 41 1.5 34.8
01:35 1025 30.27 854 25.22 14.4 58 41 1.4 34.5
01:40 1025 30.27 854 25.22 14.3 57.8 41 1.5 34.6
01:45 1025 30.27 854 25.22 14.3 57.7 41 1.1 34
01:50 1025 30.27 854 25.22 14.3 57.7 41 1.2 34.2
01:55 1025 30.27 854 25.22 14.2 57.5 41 1.2 34.2
02:00 1025 30.27 854 25.22 14.1 57.4 41 1 33.8
02:05 1025 30.27 854 25.22 14 57.2 40 0.9 33.6
02:10 1025 30.27 854 25.22 13.9 57 41 1 33.8
02:15 1025 30.27 854 25.22 13.8 56.9 41 0.8 33.4
02:20 1025 30.27 854 25.22 13.8 56.8 41 0.9 33.7
02:25 1025 30.27 854 25.22 13.8 56.8 41 0.7 33.2
02:30 1025 30.27 854 25.22 13.9 56.9 40 0.7 33.2
02:35 1025 30.27 854 25.22 13.8 56.9 40 0.7 33.2
02:40 1025 30.27 854 25.22 13.8 56.8 41 0.7 33.2
02:45 1025 30.27 854 25.22 13.8 56.8 40 0.6 33
02:50 1025 30.27 854 25.22 13.7 56.7 40 0.5 32.9
02:55 1025 30.27 854 25.22 13.7 56.6 40 0.5 32.8
03:00 1025 30.27 854 25.22 13.7 56.7 40 0.5 32.9
03:05 1025 30.27 854 25.22 13.7 56.7 40 0.4 32.6
03:10 1025 30.27 854 25.22 13.7 56.7 40 0.4 32.7
03:15 1025 30.27 855 25.25 13.7 56.6 40 0.4 32.8
03:20 1025 30.27 855 25.25 13.6 56.5 40 0.5 32.9
03:25 1025 30.27 855 25.25 13.6 56.4 40 0.5 32.8
03:30 1025 30.27 855 25.25 13.6 56.4 40 0.3 32.5
03:35 1025 30.27 855 25.25 13.6 56.4 40 0.4 32.8
03:40 1025 30.27 855 25.25 13.5 56.4 41 0.6 33
03:45 1026 30.3 855 25.25 13.3 55.9 43 0.9 33.6
03:50 1026 30.3 855 25.25 13 55.3 45 1.4 34.5
03:55 1026 30.3 855 25.25 12.7 54.9 46 1.5 34.7
04:00 1026 30.3 855 25.25 12.5 54.6 47 1.7 35
04:05 1025 30.27 855 25.25 12.5 54.4 47 1.6 34.9
04:10 1025 30.27 855 25.25 12.4 54.3 47 1.5 34.7
04:15 1026 30.3 855 25.25 12.4 54.3 47 1.3 34.4
04:20 1026 30.3 855 25.25 12.3 54.1 47 1.3 34.3
04:25 1026 30.3 855 25.25 12.2 53.9 47 1.3 34.3
04:30 1026 30.3 855 25.25 12.1 53.7 47 1.3 34.3
04:35 1026 30.3 855 25.25 11.9 53.5 48 1.2 34.2
04:40 1026 30.3 855 25.25 11.9 53.4 48 1.3 34.3
04:45 1026 30.3 855 25.25 11.7 53.1 48 1.2 34.2
04:50 1026 30.3 855 25.25 11.6 52.8 49 1.4 34.5
04:55 1026 30.3 855 25.25 11.4 52.5 50 1.3 34.4
05:00 1026 30.3 855 25.25 11.3 52.3 50 1.3 34.4
05:05 1026 30.3 855 25.25 11.2 52.2 51 1.4 34.5
05:10 1026 30.3 855 25.25 11.1 52 51 1.4 34.5
05:15 1026 30.3 855 25.25 11 51.9 51 1.4 34.5
05:20 1026 30.3 855 25.25 11 51.9 51 1.4 34.6
05:25 1026 30.3 855 25.25 11 51.7 52 1.5 34.7
05:30 1026 30.3 855 25.25 11 51.7 52 1.4 34.6
05:35 1026 30.3 855 25.25 11 51.7 51 1.4 34.5
05:40 1026 30.3 855 25.25 11 51.8 52 1.5 34.7
05:45 1026 30.3 855 25.25 11.1 51.9 51 1.4 34.4
05:50 1026 30.3 855 25.25 11.2 52.2 50 1.3 34.3
05:55 1026 30.3 855 25.25 11.3 52.3 51 1.5 34.7
06:00 1026 30.3 855 25.25 11.1 52 51 1.5 34.8
06:05 1026 30.3 855 25.25 11.2 52.1 51 1.5 34.7
06:10 1026 30.3 855 25.25 11.3 52.3 51 1.6 34.8
06:15 1026 30.3 855 25.25 11.4 52.5 52 1.8 35.3
06:20 1026 30.3 855 25.25 11.3 52.3 52 2 35.5
06:25 1026 30.3 855 25.25 11.3 52.4 52 1.9 35.4
06:30 1026 30.3 856 25.28 11.5 52.6 52 2 35.6
06:35 1026 30.3 856 25.28 11.5 52.6 51 1.7 35.1
06:40 1026 30.3 856 25.28 11.6 52.9 51 1.8 35.2
06:45 1026 30.3 856 25.28 11.8 53.2 51 1.9 35.5
06:50 1026 30.3 856 25.28 11.8 53.2 51 2.2 35.9
06:55 1026 30.3 856 25.28 11.9 53.5 50 2 35.6
07:00 1026 30.3 856 25.28 12.2 53.9 51 2.4 36.3
07:05 1027 30.33 856 25.28 12.3 54.1 51 2.4 36.4
07:10 1027 30.33 856 25.28 12.5 54.5 51 2.6 36.6
07:15 1027 30.33 856 25.28 13 55.3 50 2.7 36.9
07:20 1027 30.33 856 25.28 13.3 56 47 2.4 36.3
07:25 1027 30.33 856 25.28 13.7 56.6 46 2.3 36.2
07:30 1027 30.33 856 25.28 14 57.2 45 2.5 36.4
07:35 1027 30.33 856 25.28 14.3 57.8 44 2.2 35.9
07:40 1027 30.33 856 25.28 14.5 58.2 44 2.4 36.3
07:45 1027 30.33 856 25.28 14.8 58.6 43 2.4 36.4
07:50 1027 30.33 856 25.28 15 59 42 2.2 35.9
07:55 1027 30.33 856 25.28 15.1 59.2 42 2.5 36.5
08:00 1027 30.33 856 25.28 15.4 59.8 41 2.4 36.4
08:05 1027 30.33 856 25.28 15.7 60.2 40 2.1 35.9
08:10 1027 30.33 856 25.28 15.9 60.7 40 2.4 36.3
08:15 1027 30.33 856 25.28 16.1 60.9 40 2.7 36.8
08:20 1027 30.33 856 25.28 16.3 61.4 40 2.7 36.8
08:25 1027 30.33 856 25.28 16.4 61.6 39 2.5 36.5
08:30 1027 30.33 856 25.28 16.8 62.3 38 2.5 36.4
08:35 1027 30.33 856 25.28 16.8 62.3 36 1.9 35.5
08:40 1027 30.33 856 25.28 17.1 62.8 35 1.8 35.3
08:45 1027 30.33 856 25.28 17.4 63.3 35 1.9 35.4
08:50 1027 30.33 856 25.28 17.4 63.4 33 1 33.8
08:55 1027 30.33 856 25.28 17.6 63.7 33 1.2 34.2
09:00 1027 30.33 856 25.28 17.9 64.2 33 1.4 34.5
09:05 1027 30.33 856 25.28 18 64.4 32 1.3 34.3
09:10 1027 30.33 856 25.28 17.9 64.2 30 0.2 32.4
09:15 1027 30.33 856 25.28 18 64.3 31 0.6 33.1
09:20 1027 30.33 856 25.28 18.2 64.7 32 1.2 34.2
09:25 1027 30.33 856 25.28 18.5 65.3 29 0.5 32.9
09:30 1027 30.33 856 25.28 18.7 65.6 29 0.3 32.5
09:35 1027 30.33 856 25.28 18.9 66 29 0.5 32.9
09:40 1027 30.33 856 25.28 18.9 65.9 30 0.8 33.5
09:45 1027 30.33 856 25.28 19.1 66.4 29 0.6 33.1
09:50 1027 30.33 856 25.28 19.1 66.3 29 0.6 33.1
09:55 1027 30.33 856 25.28 19.3 66.7 29 0.9 33.7
10:00 1027 30.33 856 25.28 19.3 66.8 28 0.5 32.9
10:05 1027 30.33 856 25.28 19.5 67.2 27 0.4 32.7
10:10 1027 30.33 856 25.28 19.3 66.7 27 -0.1 31.9
10:15 1027 30.33 856 25.28 19.4 66.9 27 -0 32
10:20 1027 30.33 856 25.28 19.5 67.1 28 0.5 32.8
10:25 1027 30.33 856 25.28 19.6 67.3 27 0.5 32.8
10:30 1027 30.33 856 25.28 19.9 67.8 28 1 33.8
10:35 1027 30.33 856 25.28 20.5 68.8 27 0.9 33.6
10:40 1027 30.33 856 25.28 20.4 68.8 26 0.4 32.7
10:45 1027 30.33 856 25.28 20.1 68.2 26 0.3 32.5
10:50 1027 30.33 856 25.28 20.3 68.5 25 -0.1 31.8
10:55 1027 30.33 856 25.28 20.4 68.8 25 0.1 32.2
11:00 1027 30.33 856 25.28 20.6 69 25 0.2 32.4
11:05 1027 30.33 856 25.28 20.8 69.5 25 0.2 32.4
11:10 1027 30.33 856 25.28 20.8 69.5 26 0.8 33.4
11:15 1027 30.33 856 25.28 20.9 69.7 25 0.5 32.9
11:20 1027 30.33 856 25.28 20.9 69.6 26 0.7 33.3
11:25 1027 30.33 856 25.28 21.2 70.1 26 0.9 33.6
11:30 1027 30.33 856 25.28 21.1 70 26 0.9 33.7
11:35 1027 30.33 856 25.28 20.9 69.7 27 1.7 35
11:40 1027 30.33 856 25.28 21.1 70 25 0.8 33.4
11:45 1027 30.33 856 25.28 21.4 70.5 26 1.3 34.4
11:50 1027 30.33 856 25.28 21.5 70.7 26 1.6 34.9
11:55 1027 30.33 856 25.28 21.3 70.4 26 1.1 34
12:00 1027 30.33 856 25.28 21.3 70.4 27 1.9 35.5
12:05 1027 30.33 856 25.28 21.6 71 25 1.1 33.9
12:10 1027 30.33 856 25.28 21.5 70.7 27 1.8 35.3
12:15 1027 30.33 856 25.28 21.7 71.1 26 1.7 35
12:20 1027 30.33 856 25.28 21.7 71.1 26 1.7 35
12:25 1027 30.33 856 25.28 22 71.6 26 1.6 34.9
12:30 1026 30.3 856 25.28 21.8 71.2 26 1.5 34.8
12:35 1026 30.3 856 25.28 22 71.6 25 1.5 34.7
12:40 1026 30.3 856 25.28 21.9 71.5 26 1.8 35.2
12:45 1026 30.3 856 25.28 22.1 71.7 27 2.2 36
12:50 1026 30.3 856 25.28 22.2 71.9 25 1.5 34.7
12:55 1026 30.3 856 25.28 22.4 72.2 26 2 35.6
13:00 1026 30.3 856 25.28 22.6 72.7 25 1.8 35.2
13:05 1026 30.3 856 25.28 23.2 73.7 25 2.1 35.7
13:10 1026 30.3 856 25.28 22.9 73.2 23 1.1 34
13:15 1026 30.3 856 25.28 22.8 73 25 1.7 35
13:20 1026 30.3 855 25.25 22.7 72.9 23 1 33.8
13:25 1026 30.3 855 25.25 22.7 72.9 24 1.3 34.4
13:30 1026 30.3 855 25.25 22.7 72.9 24 1.2 34.2
13:35 1026 30.3 855 25.25 22.9 73.1 22 0.5 32.9
13:40 1026 30.3 855 25.25 23.3 73.9 23 1.1 33.9
13:45 1026 30.3 855 25.25 23.5 74.2 22 0.9 33.6
13:50 1026 30.3 855 25.25 23.3 73.9 22 0.9 33.6
13:55 1026 30.3 855 25.25 23.5 74.2 22 0.9 33.6
14:00 1026 30.3 855 25.25 23.7 74.6 21 0 32
14:05 1026 30.3 855 25.25 23.3 74 22 0.5 32.9
14:10 1026 30.3 855 25.25 23.8 74.8 21 0.6 33
14:15 1026 30.3 855 25.25 23.7 74.7 21 0.6 33.1
14:20 1026 30.3 855 25.25 23.7 74.7 20 -0.2 31.6
14:25 1026 30.3 855 25.25 23.9 74.9 21 0.7 33.3
14:30 1026 30.3 855 25.25 23.9 75 21 0.4 32.7
14:35 1026 30.3 855 25.25 23.9 75.1 20 -0.4 31.2
14:40 1026 30.3 855 25.25 24 75.2 21 0.8 33.5
14:45 1026 30.3 855 25.25 24.5 76 19 -0.4 31.2
14:50 1026 30.3 855 25.25 24.7 76.4 20 0.5 32.9
14:55 1026 30.3 855 25.25 24.1 75.3 20 -0.3 31.5
15:00 1026 30.3 855 25.25 24.5 76.2 19 -0.2 31.6
15:05 1026 30.3 855 25.25 24.6 76.2 20 0.3 32.5
15:10 1026 30.3 855 25.25 24.1 75.4 20 0.2 32.3
15:15 1026 30.3 855 25.25 24.5 76.1 19 -0.3 31.5
15:20 1026 30.3 855 25.25 25 77 20 0.5 32.9
15:25 1026 30.3 855 25.25 25 77 20 0.8 33.5
15:30 1026 30.3 855 25.25 25 77.1 20 0.9 33.5
15:35 1026 30.3 855 25.25 25.1 77.2 21 1.2 34.1
15:40 1026 30.3 855 25.25 25.2 77.3 20 0.7 33.3
15:45 1026 30.3 855 25.25 25.2 77.3 19 0.5 32.9
15:50 1025 30.27 855 25.25 25 77.1 20 0.9 33.6
15:55 1025 30.27 855 25.25 25 76.9 21 1.4 34.4
16:00 1025 30.27 855 25.25 25.2 77.3 21 1.5 34.7
16:05 1025 30.27 855 25.25 25.5 77.8 20 1.1 33.9
16:10 1025 30.27 855 25.25 25.4 77.7 20 1.4 34.5
16:15 1025 30.27 854 25.22 25.3 77.5 21 1.7 35.1
16:20 1025 30.27 854 25.22 25.9 78.6 21 1.9 35.5
16:25 1025 30.27 854 25.22 25.3 77.6 22 2 35.7
16:30 1025 30.27 854 25.22 25.6 78.2 21 1.8 35.3
16:35 1025 30.27 854 25.22 25.7 78.2 21 2.1 35.8
16:40 1025 30.27 854 25.22 25 76.9 22 2.2 35.9
16:45 1025 30.27 854 25.22 25 76.9 22 2 35.6
16:50 1025 30.27 854 25.22 25.6 78.2 21 1.6 34.9
16:55 1025 30.27 854 25.22 25.5 77.8 21 1.9 35.4
17:00 1025 30.27 854 25.22 25.6 78 21 1.8 35.3
17:05 1025 30.27 854 25.22 26.1 79 21 2.2 36
17:10 1025 30.27 854 25.22 25.7 78.2 21 2 35.7
17:15 1025 30.27 854 25.22 25.6 78.1 22 2.4 36.3
17:20 1025 30.27 854 25.22 26 78.8 20 1.8 35.2
17:25 1025 30.27 854 25.22 25.8 78.5 21 2.2 35.9
17:30 1025 30.27 854 25.22 25.7 78.3 22 2.9 37.2
17:35 1025 30.27 854 25.22 25.5 77.8 21 1.8 35.2
17:40 1025 30.27 854 25.22 25.8 78.4 21 2 35.6
17:45 1025 30.27 854 25.22 25.1 77.2 22 2 35.6
17:50 1025 30.27 854 25.22 24.8 76.7 22 2 35.5
17:55 1025 30.27 854 25.22 25.3 77.5 23 2.7 36.9
18:00 1025 30.27 854 25.22 25.1 77.2 23 2.7 36.9
18:05 1025 30.27 854 25.22 25.3 77.6 22 2.5 36.5
18:10 1025 30.27 854 25.22 25.3 77.5 23 2.6 36.7
18:15 1025 30.27 854 25.22 24.9 76.8 23 2.4 36.3
18:20 1025 30.27 854 25.22 25 76.9 23 2.3 36.2
18:25 1025 30.27 854 25.22 24.7 76.4 24 3 37.3
18:30 1025 30.27 854 25.22 24.7 76.4 23 2.4 36.3
18:35 1025 30.27 854 25.22 24.6 76.3 23 2.5 36.5
18:40 1025 30.27 854 25.22 24.5 76 24 2.7 36.9
18:45 1025 30.27 854 25.22 24.2 75.5 24 2.5 36.4
18:50 1025 30.27 854 25.22 24.1 75.4 23 2.1 35.7
18:55 1025 30.27 854 25.22 24 75.2 24 2.5 36.6
19:00 1025 30.27 854 25.22 24.1 75.3 25 2.9 37.2
19:05 1025 30.27 854 25.22 24 75.1 24 2.6 36.6
19:10 1025 30.27 854 25.22 23.7 74.7 25 2.9 37.2
19:15 1025 30.27 854 25.22 23.6 74.5 25 2.4 36.4
19:20 1025 30.27 854 25.22 23.6 74.5 25 2.8 37
19:25 1025 30.27 854 25.22 23.6 74.4 25 2.6 36.6
19:30 1025 30.27 854 25.22 23.4 74.1 26 2.7 36.9
19:35 1025 30.27 854 25.22 23 73.4 26 2.6 36.7
19:40 1025 30.27 854 25.22 22.8 73 26 2.6 36.7
19:45 1025 30.27 854 25.22 22.7 72.8 26 2.3 36.2
19:50 1025 30.27 854 25.22 22.5 72.5 27 2.7 36.8
19:55 1025 30.27 854 25.22 22.4 72.4 27 2.7 36.8
20:00 1025 30.27 854 25.22 22.3 72.1 27 2.5 36.5
20:05 1025 30.27 854 25.22 22.2 72 27 2.8 37
20:10 1025 30.27 854 25.22 22.1 71.7 27 2.6 36.7
20:15 1024 30.24 854 25.22 21.9 71.5 27 2.2 35.9
20:20 1025 30.27 854 25.22 21.8 71.3 26 1.8 35.2
20:25 1025 30.27 854 25.22 21.7 71.1 27 2 35.7
20:30 1025 30.27 854 25.22 21.6 70.8 27 2 35.5
20:35 1025 30.27 854 25.22 21.4 70.5 27 1.9 35.4
20:40 1025 30.27 854 25.22 21.3 70.3 27 1.8 35.3
20:45 1025 30.27 854 25.22 21.1 70 28 2 35.6
20:50 1025 30.27 854 25.22 20.8 69.5 28 1.8 35.3
20:55 1025 30.27 854 25.22 20.7 69.3 28 1.8 35.3
21:00 1025 30.27 854 25.22 20.6 69.1 28 1.7 35.1
21:05 1025 30.27 854 25.22 20.6 69 28 1.6 34.9
21:10 1025 30.27 854 25.22 20.4 68.6 29 1.7 35.1
21:15 1025 30.27 854 25.22 20.2 68.4 29 1.6 34.8
21:20 1025 30.27 854 25.22 20.1 68.2 29 1.8 35.2
21:25 1025 30.27 854 25.22 20 68 29 1.6 34.9
21:30 1025 30.27 854 25.22 19.9 67.9 29 1.3 34.3
21:35 1025 30.27 854 25.22 19.9 67.9 29 1.4 34.5
21:40 1025 30.27 854 25.22 19.8 67.7 29 1.3 34.4
21:45 1025 30.27 854 25.22 19.6 67.3 29 1.4 34.5
21:50 1025 30.27 854 25.22 19.5 67.2 29 1.1 34.1
21:55 1025 30.27 854 25.22 19.5 67.1 29 1.1 34
22:00 1025 30.27 854 25.22 19.5 67 29 1 33.9
22:05 1025 30.27 854 25.22 19.3 66.7 30 1.2 34.2
22:10 1025 30.27 854 25.22 19.1 66.5 29 0.9 33.5
22:15 1025 30.27 854 25.22 19.2 66.5 29 0.8 33.5
22:20 1025 30.27 854 25.22 19.1 66.4 29 1 33.8
22:25 1025 30.27 854 25.22 19.1 66.3 29 0.8 33.5
22:30 1025 30.27 854 25.22 19 66.3 29 0.8 33.4
22:35 1025 30.27 854 25.22 18.9 66.1 29 0.8 33.5
22:40 1025 30.27 854 25.22 18.9 66 30 0.9 33.5
22:45 1025 30.27 854 25.22 18.8 65.9 30 0.9 33.7
22:50 1025 30.27 854 25.22 18.7 65.6 30 1 33.8
22:55 1025 30.27 854 25.22 18.5 65.3 30 0.9 33.6
23:00 1025 30.27 854 25.22 18.5 65.3 31 1 33.7
23:05 1025 30.27 854 25.22 18.4 65.1 30 0.9 33.6
23:10 1025 30.27 854 25.22 18.3 65 31 0.9 33.6
23:15 1025 30.27 854 25.22 18.2 64.7 31 0.9 33.6
23:20 1025 30.27 854 25.22 18.2 64.7 31 0.8 33.5
23:25 1025 30.27 854 25.22 18.1 64.6 31 0.9 33.7
23:30 1025 30.27 854 25.22 18 64.4 31 0.7 33.3
23:35 1025 30.27 854 25.22 18 64.4 31 0.7 33.3
23:40 1025 30.27 854 25.22 17.9 64.3 31 0.6 33.2
23:45 1025 30.27 854 25.22 17.9 64.2 31 0.7 33.2
23:50 1025 30.27 854 25.22 17.7 63.9 31 0.6 33
23:55 1025 30.27 854 25.22 17.7 63.9 31 0.5 33
24:00 1025 30.27 854 25.22 17.7 63.8 31 0.6 33